sensor_id;sensor_type;location;lat;lon;timestamp;temperature;humidity
53978;DHT22;39886;47.984;-1.586;2023-06-04T00:00:43;24.10;55.30
53978;DHT22;39886;47.984;-1.586;2023-06-04T00:03:09;24.10;55.30
53978;DHT22;39886;47.984;-1.586;2023-06-04T00:05:35;24.00;55.30
53978;DHT22;39886;47.984;-1.586;2023-06-04T00:08:00;24.00;55.30
53978;DHT22;39886;47.984;-1.586;2023-06-04T00:10:26;24.00;55.30
53978;DHT22;39886;47.984;-1.586;2023-06-04T00:12:52;24.00;55.40
53978;DHT22;39886;47.984;-1.586;2023-06-04T00:15:17;24.00;55.40
53978;DHT22;39886;47.984;-1.586;2023-06-04T00:17:43;24.00;55.40
53978;DHT22;39886;47.984;-1.586;2023-06-04T00:20:09;24.00;56.10
53978;DHT22;39886;47.984;-1.586;2023-06-04T00:22:35;24.00;55.40
53978;DHT22;39886;47.984;-1.586;2023-06-04T00:25:01;23.90;55.40
53978;DHT22;39886;47.984;-1.586;2023-06-04T00:27:46;23.90;55.40
53978;DHT22;39886;47.984;-1.586;2023-06-04T00:30:12;23.90;55.40
53978;DHT22;39886;47.984;-1.586;2023-06-04T00:32:38;23.90;55.50
53978;DHT22;39886;47.984;-1.586;2023-06-04T00:35:04;23.90;55.50
53978;DHT22;39886;47.984;-1.586;2023-06-04T00:37:30;23.90;55.50
53978;DHT22;39886;47.984;-1.586;2023-06-04T00:39:56;23.90;55.50
53978;DHT22;39886;47.984;-1.586;2023-06-04T00:42:21;23.90;55.50
53978;DHT22;39886;47.984;-1.586;2023-06-04T00:44:47;23.90;55.60
53978;DHT22;39886;47.984;-1.586;2023-06-04T00:47:17;23.90;55.60
53978;DHT22;39886;47.984;-1.586;2023-06-04T00:49:43;23.90;55.60
53978;DHT22;39886;47.984;-1.586;2023-06-04T00:52:12;23.90;55.60
53978;DHT22;39886;47.984;-1.586;2023-06-04T00:54:38;23.80;56.20
53978;DHT22;39886;47.984;-1.586;2023-06-04T00:57:05;23.80;55.60
53978;DHT22;39886;47.984;-1.586;2023-06-04T00:59:32;23.80;55.60
53978;DHT22;39886;47.984;-1.586;2023-06-04T01:02:00;23.80;55.60
53978;DHT22;39886;47.984;-1.586;2023-06-04T01:04:37;23.80;55.70
53978;DHT22;39886;47.984;-1.586;2023-06-04T01:07:07;23.80;55.70
53978;DHT22;39886;47.984;-1.586;2023-06-04T01:09:35;23.80;55.70
53978;DHT22;39886;47.984;-1.586;2023-06-04T01:12:06;23.80;55.70
53978;DHT22;39886;47.984;-1.586;2023-06-04T01:14:32;23.80;55.70
53978;DHT22;39886;47.984;-1.586;2023-06-04T01:25:39;23.70;55.70
53978;DHT22;39886;47.984;-1.586;2023-06-04T01:28:06;23.70;55.70
53978;DHT22;39886;47.984;-1.586;2023-06-04T01:30:35;23.70;55.70
53978;DHT22;39886;47.984;-1.586;2023-06-04T01:33:02;23.70;55.80
53978;DHT22;39886;47.984;-1.586;2023-06-04T01:35:29;23.70;55.80
53978;DHT22;39886;47.984;-1.586;2023-06-04T01:37:58;23.60;55.70
53978;DHT22;39886;47.984;-1.586;2023-06-04T01:40:24;23.70;56.40
53978;DHT22;39886;47.984;-1.586;2023-06-04T01:42:51;23.70;55.80
53978;DHT22;39886;47.984;-1.586;2023-06-04T01:45:17;23.70;55.80
53978;DHT22;39886;47.984;-1.586;2023-06-04T01:47:43;23.60;56.40
53978;DHT22;39886;47.984;-1.586;2023-06-04T01:50:09;23.60;55.80
53978;DHT22;39886;47.984;-1.586;2023-06-04T01:52:38;23.60;55.80
53978;DHT22;39886;47.984;-1.586;2023-06-04T01:55:05;23.60;55.80
53978;DHT22;39886;47.984;-1.586;2023-06-04T01:57:33;23.60;55.80
53978;DHT22;39886;47.984;-1.586;2023-06-04T01:59:59;23.60;55.80
53978;DHT22;39886;47.984;-1.586;2023-06-04T02:02:26;23.60;55.90
53978;DHT22;39886;47.984;-1.586;2023-06-04T02:04:52;23.60;55.90
53978;DHT22;39886;47.984;-1.586;2023-06-04T02:07:19;23.60;55.90
53978;DHT22;39886;47.984;-1.586;2023-06-04T02:09:48;23.50;55.80
53978;DHT22;39886;47.984;-1.586;2023-06-04T02:12:14;23.60;55.90
53978;DHT22;39886;47.984;-1.586;2023-06-04T02:14:40;23.60;56.00
53978;DHT22;39886;47.984;-1.586;2023-06-04T02:17:11;23.50;55.90
53978;DHT22;39886;47.984;-1.586;2023-06-04T02:19:43;23.50;55.90
53978;DHT22;39886;47.984;-1.586;2023-06-04T02:22:11;23.50;55.90
53978;DHT22;39886;47.984;-1.586;2023-06-04T02:24:38;23.50;55.90
53978;DHT22;39886;47.984;-1.586;2023-06-04T02:27:05;23.50;55.90
53978;DHT22;39886;47.984;-1.586;2023-06-04T02:29:32;23.50;56.00
53978;DHT22;39886;47.984;-1.586;2023-06-04T02:31:57;23.50;56.00
53978;DHT22;39886;47.984;-1.586;2023-06-04T02:34:23;23.50;56.00
53978;DHT22;39886;47.984;-1.586;2023-06-04T02:36:50;23.50;56.00
53978;DHT22;39886;47.984;-1.586;2023-06-04T02:39:17;23.50;56.00
53978;DHT22;39886;47.984;-1.586;2023-06-04T02:41:43;23.50;56.00
53978;DHT22;39886;47.984;-1.586;2023-06-04T02:44:09;23.50;56.00
53978;DHT22;39886;47.984;-1.586;2023-06-04T02:46:34;23.50;56.10
53978;DHT22;39886;47.984;-1.586;2023-06-04T02:49:00;23.40;56.00
53978;DHT22;39886;47.984;-1.586;2023-06-04T02:51:26;23.40;56.10
53978;DHT22;39886;47.984;-1.586;2023-06-04T02:53:54;23.40;56.00
53978;DHT22;39886;47.984;-1.586;2023-06-04T02:56:20;23.40;56.00
53978;DHT22;39886;47.984;-1.586;2023-06-04T02:58:50;23.40;56.00
53978;DHT22;39886;47.984;-1.586;2023-06-04T03:01:20;23.40;56.10
53978;DHT22;39886;47.984;-1.586;2023-06-04T03:03:49;23.40;56.10
53978;DHT22;39886;47.984;-1.586;2023-06-04T03:06:16;23.40;56.10
53978;DHT22;39886;47.984;-1.586;2023-06-04T03:08:42;23.40;56.10
53978;DHT22;39886;47.984;-1.586;2023-06-04T03:11:08;23.30;56.10
53978;DHT22;39886;47.984;-1.586;2023-06-04T03:13:35;23.30;56.10
53978;DHT22;39886;47.984;-1.586;2023-06-04T03:16:01;23.30;56.10
53978;DHT22;39886;47.984;-1.586;2023-06-04T03:18:30;23.30;56.10
53978;DHT22;39886;47.984;-1.586;2023-06-04T03:20:58;23.30;56.10
53978;DHT22;39886;47.984;-1.586;2023-06-04T03:23:24;23.30;56.10
53978;DHT22;39886;47.984;-1.586;2023-06-04T03:25:50;23.30;56.10
53978;DHT22;39886;47.984;-1.586;2023-06-04T03:28:16;23.30;56.20
53978;DHT22;39886;47.984;-1.586;2023-06-04T03:30:41;23.30;56.20
53978;DHT22;39886;47.984;-1.586;2023-06-04T03:33:07;23.30;56.20
53978;DHT22;39886;47.984;-1.586;2023-06-04T03:35:33;23.30;56.20
53978;DHT22;39886;47.984;-1.586;2023-06-04T03:38:00;23.30;56.20
53978;DHT22;39886;47.984;-1.586;2023-06-04T03:40:25;23.30;56.20
53978;DHT22;39886;47.984;-1.586;2023-06-04T03:42:51;23.30;56.20
53978;DHT22;39886;47.984;-1.586;2023-06-04T03:45:17;23.30;56.20
53978;DHT22;39886;47.984;-1.586;2023-06-04T03:47:43;23.20;56.20
53978;DHT22;39886;47.984;-1.586;2023-06-04T03:50:09;23.20;56.20
53978;DHT22;39886;47.984;-1.586;2023-06-04T03:52:35;23.20;56.20
53978;DHT22;39886;47.984;-1.586;2023-06-04T03:55:01;23.20;56.20
53978;DHT22;39886;47.984;-1.586;2023-06-04T03:57:27;23.20;56.20
53978;DHT22;39886;47.984;-1.586;2023-06-04T03:59:52;23.20;56.30
53978;DHT22;39886;47.984;-1.586;2023-06-04T04:02:18;23.20;56.30
53978;DHT22;39886;47.984;-1.586;2023-06-04T04:04:44;23.20;56.30
53978;DHT22;39886;47.984;-1.586;2023-06-04T04:07:10;23.20;56.30
53978;DHT22;39886;47.984;-1.586;2023-06-04T04:09:36;23.20;56.30
53978;DHT22;39886;47.984;-1.586;2023-06-04T04:12:03;23.20;56.30
53978;DHT22;39886;47.984;-1.586;2023-06-04T04:14:28;23.20;56.30
53978;DHT22;39886;47.984;-1.586;2023-06-04T04:16:54;23.20;56.30
53978;DHT22;39886;47.984;-1.586;2023-06-04T04:19:20;23.20;56.30
53978;DHT22;39886;47.984;-1.586;2023-06-04T04:21:46;23.10;56.30
53978;DHT22;39886;47.984;-1.586;2023-06-04T04:24:26;23.10;56.30
53978;DHT22;39886;47.984;-1.586;2023-06-04T04:26:53;23.10;56.30
53978;DHT22;39886;47.984;-1.586;2023-06-04T04:29:22;23.10;56.20
53978;DHT22;39886;47.984;-1.586;2023-06-04T04:31:53;23.10;56.30
53978;DHT22;39886;47.984;-1.586;2023-06-04T04:34:22;23.10;56.30
53978;DHT22;39886;47.984;-1.586;2023-06-04T04:36:49;23.10;56.30
53978;DHT22;39886;47.984;-1.586;2023-06-04T04:39:27;23.10;56.30
53978;DHT22;39886;47.984;-1.586;2023-06-04T04:41:54;23.10;56.30
53978;DHT22;39886;47.984;-1.586;2023-06-04T04:44:21;23.10;56.30
53978;DHT22;39886;47.984;-1.586;2023-06-04T04:46:49;23.10;56.30
53978;DHT22;39886;47.984;-1.586;2023-06-04T04:49:15;23.10;56.30
53978;DHT22;39886;47.984;-1.586;2023-06-04T04:51:41;23.10;56.20
53978;DHT22;39886;47.984;-1.586;2023-06-04T04:54:07;23.10;56.20
53978;DHT22;39886;47.984;-1.586;2023-06-04T04:56:33;23.10;56.20
53978;DHT22;39886;47.984;-1.586;2023-06-04T04:59:02;23.10;56.20
53978;DHT22;39886;47.984;-1.586;2023-06-04T05:01:28;23.10;56.10
53978;DHT22;39886;47.984;-1.586;2023-06-04T05:03:54;23.10;56.10
53978;DHT22;39886;47.984;-1.586;2023-06-04T05:06:19;23.10;56.10
53978;DHT22;39886;47.984;-1.586;2023-06-04T05:08:47;23.20;56.10
53978;DHT22;39886;47.984;-1.586;2023-06-04T05:11:13;23.20;56.10
53978;DHT22;39886;47.984;-1.586;2023-06-04T05:13:38;23.20;56.00
53978;DHT22;39886;47.984;-1.586;2023-06-04T05:16:04;23.20;56.00
53978;DHT22;39886;47.984;-1.586;2023-06-04T05:18:36;23.20;56.00
53978;DHT22;39886;47.984;-1.586;2023-06-04T05:21:06;23.20;56.00
53978;DHT22;39886;47.984;-1.586;2023-06-04T05:23:33;23.20;55.90
53978;DHT22;39886;47.984;-1.586;2023-06-04T05:26:00;23.20;55.90
53978;DHT22;39886;47.984;-1.586;2023-06-04T05:28:27;23.30;55.90
53978;DHT22;39886;47.984;-1.586;2023-06-04T05:30:52;23.30;55.90
53978;DHT22;39886;47.984;-1.586;2023-06-04T05:33:25;23.30;55.80
53978;DHT22;39886;47.984;-1.586;2023-06-04T05:35:50;23.30;55.80
53978;DHT22;39886;47.984;-1.586;2023-06-04T05:38:25;23.30;55.80
53978;DHT22;39886;47.984;-1.586;2023-06-04T05:40:54;23.30;55.80
53978;DHT22;39886;47.984;-1.586;2023-06-04T05:43:21;23.40;55.80
53978;DHT22;39886;47.984;-1.586;2023-06-04T05:45:47;23.30;55.80
53978;DHT22;39886;47.984;-1.586;2023-06-04T05:48:13;23.40;55.80
53978;DHT22;39886;47.984;-1.586;2023-06-04T05:50:38;23.40;55.70
53978;DHT22;39886;47.984;-1.586;2023-06-04T05:53:04;23.50;55.80
53978;DHT22;39886;47.984;-1.586;2023-06-04T05:55:30;23.50;55.80
53978;DHT22;39886;47.984;-1.586;2023-06-04T05:57:56;23.50;55.70
53978;DHT22;39886;47.984;-1.586;2023-06-04T06:00:22;23.50;55.80
53978;DHT22;39886;47.984;-1.586;2023-06-04T06:02:49;23.60;55.80
53978;DHT22;39886;47.984;-1.586;2023-06-04T06:05:17;23.60;55.70
53978;DHT22;39886;47.984;-1.586;2023-06-04T06:07:43;23.60;55.70
53978;DHT22;39886;47.984;-1.586;2023-06-04T06:10:09;23.60;55.70
53978;DHT22;39886;47.984;-1.586;2023-06-04T06:12:35;23.70;55.70
53978;DHT22;39886;47.984;-1.586;2023-06-04T06:15:01;23.70;55.70
53978;DHT22;39886;47.984;-1.586;2023-06-04T06:17:27;23.70;55.60
53978;DHT22;39886;47.984;-1.586;2023-06-04T06:19:54;23.80;55.60
53978;DHT22;39886;47.984;-1.586;2023-06-04T06:22:20;23.80;55.50
53978;DHT22;39886;47.984;-1.586;2023-06-04T06:24:46;23.80;55.40
53978;DHT22;39886;47.984;-1.586;2023-06-04T06:27:14;23.90;55.50
53978;DHT22;39886;47.984;-1.586;2023-06-04T06:29:41;23.90;55.30
53978;DHT22;39886;47.984;-1.586;2023-06-04T06:32:07;23.90;55.30
53978;DHT22;39886;47.984;-1.586;2023-06-04T06:34:33;23.90;55.30
53978;DHT22;39886;47.984;-1.586;2023-06-04T06:36:58;24.00;55.20
53978;DHT22;39886;47.984;-1.586;2023-06-04T06:39:24;24.00;55.10
53978;DHT22;39886;47.984;-1.586;2023-06-04T06:41:50;24.10;55.10
53978;DHT22;39886;47.984;-1.586;2023-06-04T06:44:16;24.10;55.00
53978;DHT22;39886;47.984;-1.586;2023-06-04T06:46:41;24.10;55.00
53978;DHT22;39886;47.984;-1.586;2023-06-04T06:49:07;24.10;55.00
53978;DHT22;39886;47.984;-1.586;2023-06-04T06:51:33;24.20;55.00
53978;DHT22;39886;47.984;-1.586;2023-06-04T06:53:59;24.20;54.90
53978;DHT22;39886;47.984;-1.586;2023-06-04T06:56:25;24.30;54.80
53978;DHT22;39886;47.984;-1.586;2023-06-04T06:58:51;24.30;54.80
53978;DHT22;39886;47.984;-1.586;2023-06-04T07:01:17;24.30;54.80
53978;DHT22;39886;47.984;-1.586;2023-06-04T07:03:43;24.30;54.70
53978;DHT22;39886;47.984;-1.586;2023-06-04T07:06:09;24.40;54.60
53978;DHT22;39886;47.984;-1.586;2023-06-04T07:08:35;24.40;54.60
53978;DHT22;39886;47.984;-1.586;2023-06-04T07:11:02;24.40;54.50
53978;DHT22;39886;47.984;-1.586;2023-06-04T07:13:28;24.50;54.50
53978;DHT22;39886;47.984;-1.586;2023-06-04T07:15:57;24.50;54.50
53978;DHT22;39886;47.984;-1.586;2023-06-04T07:18:23;24.50;54.40
53978;DHT22;39886;47.984;-1.586;2023-06-04T07:20:49;24.60;54.40
53978;DHT22;39886;47.984;-1.586;2023-06-04T07:23:15;24.60;54.40
53978;DHT22;39886;47.984;-1.586;2023-06-04T07:25:40;24.60;54.30
53978;DHT22;39886;47.984;-1.586;2023-06-04T07:28:06;24.70;54.30
53978;DHT22;39886;47.984;-1.586;2023-06-04T07:30:32;24.70;54.30
53978;DHT22;39886;47.984;-1.586;2023-06-04T07:32:58;24.80;54.30
53978;DHT22;39886;47.984;-1.586;2023-06-04T07:35:24;24.80;54.20
53978;DHT22;39886;47.984;-1.586;2023-06-04T07:37:50;24.80;54.20
53978;DHT22;39886;47.984;-1.586;2023-06-04T07:40:16;24.80;54.10
53978;DHT22;39886;47.984;-1.586;2023-06-04T07:42:42;24.90;54.10
53978;DHT22;39886;47.984;-1.586;2023-06-04T07:45:09;24.90;54.10
53978;DHT22;39886;47.984;-1.586;2023-06-04T07:47:36;24.90;54.00
53978;DHT22;39886;47.984;-1.586;2023-06-04T07:50:03;25.00;54.00
53978;DHT22;39886;47.984;-1.586;2023-06-04T07:52:29;25.00;53.90
53978;DHT22;39886;47.984;-1.586;2023-06-04T07:54:55;25.00;53.90
53978;DHT22;39886;47.984;-1.586;2023-06-04T07:57:22;25.00;53.80
53978;DHT22;39886;47.984;-1.586;2023-06-04T07:59:48;25.10;53.80
53978;DHT22;39886;47.984;-1.586;2023-06-04T08:02:14;25.10;53.70
53978;DHT22;39886;47.984;-1.586;2023-06-04T08:04:40;25.20;53.70
53978;DHT22;39886;47.984;-1.586;2023-06-04T08:07:06;25.20;53.60
53978;DHT22;39886;47.984;-1.586;2023-06-04T08:09:32;25.20;53.60
53978;DHT22;39886;47.984;-1.586;2023-06-04T08:11:57;25.30;53.60
53978;DHT22;39886;47.984;-1.586;2023-06-04T08:14:23;25.30;53.50
53978;DHT22;39886;47.984;-1.586;2023-06-04T08:16:55;25.30;53.50
53978;DHT22;39886;47.984;-1.586;2023-06-04T08:19:21;25.30;53.40
53978;DHT22;39886;47.984;-1.586;2023-06-04T08:21:46;25.40;53.40
53978;DHT22;39886;47.984;-1.586;2023-06-04T08:24:13;25.40;53.30
53978;DHT22;39886;47.984;-1.586;2023-06-04T08:26:38;25.50;53.40
53978;DHT22;39886;47.984;-1.586;2023-06-04T08:29:04;25.50;53.30
53978;DHT22;39886;47.984;-1.586;2023-06-04T08:31:31;25.50;53.30
53978;DHT22;39886;47.984;-1.586;2023-06-04T08:33:56;25.60;53.20
53978;DHT22;39886;47.984;-1.586;2023-06-04T08:36:22;25.60;53.20
53978;DHT22;39886;47.984;-1.586;2023-06-04T08:38:48;25.60;53.00
53978;DHT22;39886;47.984;-1.586;2023-06-04T08:43:59;25.70;53.10
53978;DHT22;39886;47.984;-1.586;2023-06-04T08:46:27;25.70;53.10
53978;DHT22;39886;47.984;-1.586;2023-06-04T08:48:55;25.70;53.10
53978;DHT22;39886;47.984;-1.586;2023-06-04T08:51:22;25.80;53.10
53978;DHT22;39886;47.984;-1.586;2023-06-04T08:53:47;25.80;53.00
53978;DHT22;39886;47.984;-1.586;2023-06-04T08:56:16;25.80;52.90
53978;DHT22;39886;47.984;-1.586;2023-06-04T08:58:43;25.90;53.00
53978;DHT22;39886;47.984;-1.586;2023-06-04T09:01:09;25.90;52.90
53978;DHT22;39886;47.984;-1.586;2023-06-04T09:03:36;25.90;52.90
53978;DHT22;39886;47.984;-1.586;2023-06-04T09:06:03;25.90;53.50
53978;DHT22;39886;47.984;-1.586;2023-06-04T09:08:34;26.00;52.80
53978;DHT22;39886;47.984;-1.586;2023-06-04T09:11:04;26.00;52.80
53978;DHT22;39886;47.984;-1.586;2023-06-04T09:13:31;26.00;52.70
53978;DHT22;39886;47.984;-1.586;2023-06-04T09:16:01;26.00;52.70
53978;DHT22;39886;47.984;-1.586;2023-06-04T09:18:28;26.10;52.80
53978;DHT22;39886;47.984;-1.586;2023-06-04T09:21:03;26.10;52.80
53978;DHT22;39886;47.984;-1.586;2023-06-04T09:23:33;26.10;52.70
53978;DHT22;39886;47.984;-1.586;2023-06-04T09:26:07;26.20;52.80
53978;DHT22;39886;47.984;-1.586;2023-06-04T09:28:34;26.20;52.70
53978;DHT22;39886;47.984;-1.586;2023-06-04T09:31:00;26.20;52.60
53978;DHT22;39886;47.984;-1.586;2023-06-04T09:33:28;26.20;52.60
53978;DHT22;39886;47.984;-1.586;2023-06-04T09:35:58;26.30;52.60
53978;DHT22;39886;47.984;-1.586;2023-06-04T09:38:37;26.30;52.60
53978;DHT22;39886;47.984;-1.586;2023-06-04T09:41:03;26.30;52.60
53978;DHT22;39886;47.984;-1.586;2023-06-04T09:43:32;26.30;52.50
53978;DHT22;39886;47.984;-1.586;2023-06-04T09:46:12;26.40;52.50
53978;DHT22;39886;47.984;-1.586;2023-06-04T09:48:39;26.40;52.50
53978;DHT22;39886;47.984;-1.586;2023-06-04T09:53:37;26.40;52.40
53978;DHT22;39886;47.984;-1.586;2023-06-04T09:56:04;26.40;53.00
53978;DHT22;39886;47.984;-1.586;2023-06-04T09:58:30;26.40;52.40
53978;DHT22;39886;47.984;-1.586;2023-06-04T10:00:58;26.50;52.40
53978;DHT22;39886;47.984;-1.586;2023-06-04T10:03:25;26.50;52.30
53978;DHT22;39886;47.984;-1.586;2023-06-04T10:05:57;26.50;52.30
53978;DHT22;39886;47.984;-1.586;2023-06-04T10:08:23;26.50;52.30
53978;DHT22;39886;47.984;-1.586;2023-06-04T10:10:51;26.50;52.30
53978;DHT22;39886;47.984;-1.586;2023-06-04T10:13:20;26.60;52.30
53978;DHT22;39886;47.984;-1.586;2023-06-04T10:15:47;26.60;52.30
53978;DHT22;39886;47.984;-1.586;2023-06-04T10:18:14;26.60;52.20
53978;DHT22;39886;47.984;-1.586;2023-06-04T10:20:41;26.60;52.30
53978;DHT22;39886;47.984;-1.586;2023-06-04T10:23:07;26.60;52.20
53978;DHT22;39886;47.984;-1.586;2023-06-04T10:25:36;26.60;52.10
53978;DHT22;39886;47.984;-1.586;2023-06-04T10:28:03;26.60;52.20
53978;DHT22;39886;47.984;-1.586;2023-06-04T10:30:30;26.60;52.20
53978;DHT22;39886;47.984;-1.586;2023-06-04T10:32:59;26.60;52.10
53978;DHT22;39886;47.984;-1.586;2023-06-04T10:38:13;26.60;52.20
53978;DHT22;39886;47.984;-1.586;2023-06-04T10:40:41;26.60;52.20
53978;DHT22;39886;47.984;-1.586;2023-06-04T10:43:09;26.60;52.10
53978;DHT22;39886;47.984;-1.586;2023-06-04T10:45:35;26.70;52.20
53978;DHT22;39886;47.984;-1.586;2023-06-04T10:48:04;26.70;52.20
53978;DHT22;39886;47.984;-1.586;2023-06-04T10:50:32;26.70;52.20
53978;DHT22;39886;47.984;-1.586;2023-06-04T10:52:58;26.70;52.20
53978;DHT22;39886;47.984;-1.586;2023-06-04T10:55:29;26.70;52.20
53978;DHT22;39886;47.984;-1.586;2023-06-04T10:57:59;26.70;52.10
53978;DHT22;39886;47.984;-1.586;2023-06-04T11:00:38;26.70;52.10
53978;DHT22;39886;47.984;-1.586;2023-06-04T11:03:05;26.70;52.20
53978;DHT22;39886;47.984;-1.586;2023-06-04T11:08:05;26.70;52.10
53978;DHT22;39886;47.984;-1.586;2023-06-04T11:10:40;26.70;52.10
53978;DHT22;39886;47.984;-1.586;2023-06-04T11:13:06;26.70;52.10
53978;DHT22;39886;47.984;-1.586;2023-06-04T11:15:42;26.70;52.00
53978;DHT22;39886;47.984;-1.586;2023-06-04T11:18:08;26.70;52.10
53978;DHT22;39886;47.984;-1.586;2023-06-04T11:20:34;26.70;52.10
53978;DHT22;39886;47.984;-1.586;2023-06-04T11:23:00;26.70;52.10
53978;DHT22;39886;47.984;-1.586;2023-06-04T11:25:28;26.70;52.00
53978;DHT22;39886;47.984;-1.586;2023-06-04T11:27:56;26.70;52.00
53978;DHT22;39886;47.984;-1.586;2023-06-04T11:30:23;26.70;52.00
53978;DHT22;39886;47.984;-1.586;2023-06-04T11:32:49;26.80;52.00
53978;DHT22;39886;47.984;-1.586;2023-06-04T11:35:15;26.70;52.00
53978;DHT22;39886;47.984;-1.586;2023-06-04T11:37:41;26.70;52.00
53978;DHT22;39886;47.984;-1.586;2023-06-04T11:40:19;26.80;52.10
53978;DHT22;39886;47.984;-1.586;2023-06-04T11:42:46;26.80;52.00
53978;DHT22;39886;47.984;-1.586;2023-06-04T11:45:13;26.70;52.00
53978;DHT22;39886;47.984;-1.586;2023-06-04T11:47:44;26.70;52.00
53978;DHT22;39886;47.984;-1.586;2023-06-04T11:50:11;26.80;52.10
53978;DHT22;39886;47.984;-1.586;2023-06-04T11:52:37;26.80;52.10
53978;DHT22;39886;47.984;-1.586;2023-06-04T11:55:05;26.70;52.00
53978;DHT22;39886;47.984;-1.586;2023-06-04T11:57:33;26.70;52.00
53978;DHT22;39886;47.984;-1.586;2023-06-04T11:59:59;26.80;52.10
53978;DHT22;39886;47.984;-1.586;2023-06-04T12:02:25;26.70;52.00
53978;DHT22;39886;47.984;-1.586;2023-06-04T12:04:50;26.80;52.10
53978;DHT22;39886;47.984;-1.586;2023-06-04T12:07:20;26.80;52.10
53978;DHT22;39886;47.984;-1.586;2023-06-04T12:09:49;26.80;52.10
53978;DHT22;39886;47.984;-1.586;2023-06-04T12:12:21;26.80;52.10
53978;DHT22;39886;47.984;-1.586;2023-06-04T12:14:57;26.80;52.10
53978;DHT22;39886;47.984;-1.586;2023-06-04T12:17:23;26.80;52.10
53978;DHT22;39886;47.984;-1.586;2023-06-04T12:19:50;26.80;52.10
53978;DHT22;39886;47.984;-1.586;2023-06-04T12:22:16;26.70;52.00
53978;DHT22;39886;47.984;-1.586;2023-06-04T12:24:50;26.80;52.10
53978;DHT22;39886;47.984;-1.586;2023-06-04T12:27:19;26.70;52.00
53978;DHT22;39886;47.984;-1.586;2023-06-04T12:30:00;26.70;52.00
53978;DHT22;39886;47.984;-1.586;2023-06-04T12:32:27;26.70;52.10
53978;DHT22;39886;47.984;-1.586;2023-06-04T12:34:53;26.70;52.00
53978;DHT22;39886;47.984;-1.586;2023-06-04T12:37:21;26.70;52.10
53978;DHT22;39886;47.984;-1.586;2023-06-04T12:39:47;26.70;52.10
53978;DHT22;39886;47.984;-1.586;2023-06-04T12:42:13;26.70;52.00
53978;DHT22;39886;47.984;-1.586;2023-06-04T12:44:39;26.80;52.20
53978;DHT22;39886;47.984;-1.586;2023-06-04T12:47:06;26.70;52.10
53978;DHT22;39886;47.984;-1.586;2023-06-04T12:49:32;26.70;52.10
53978;DHT22;39886;47.984;-1.586;2023-06-04T12:51:58;26.70;52.10
53978;DHT22;39886;47.984;-1.586;2023-06-04T12:54:24;26.70;52.10
53978;DHT22;39886;47.984;-1.586;2023-06-04T12:56:50;26.70;52.20
53978;DHT22;39886;47.984;-1.586;2023-06-04T12:59:16;26.70;52.10
53978;DHT22;39886;47.984;-1.586;2023-06-04T13:01:42;26.70;52.10
53978;DHT22;39886;47.984;-1.586;2023-06-04T13:04:08;26.70;52.00
53978;DHT22;39886;47.984;-1.586;2023-06-04T13:06:35;26.70;52.00
53978;DHT22;39886;47.984;-1.586;2023-06-04T13:09:04;26.70;52.00
53978;DHT22;39886;47.984;-1.586;2023-06-04T13:11:38;26.70;52.00
53978;DHT22;39886;47.984;-1.586;2023-06-04T13:14:05;26.70;51.90
53978;DHT22;39886;47.984;-1.586;2023-06-04T13:16:31;26.70;52.00
53978;DHT22;39886;47.984;-1.586;2023-06-04T13:18:56;26.70;52.00
53978;DHT22;39886;47.984;-1.586;2023-06-04T13:21:22;26.70;52.00
53978;DHT22;39886;47.984;-1.586;2023-06-04T13:23:48;26.80;52.10
53978;DHT22;39886;47.984;-1.586;2023-06-04T13:26:18;26.80;52.10
53978;DHT22;39886;47.984;-1.586;2023-06-04T13:28:44;26.80;52.10
53978;DHT22;39886;47.984;-1.586;2023-06-04T13:31:10;26.80;52.10
53978;DHT22;39886;47.984;-1.586;2023-06-04T13:33:36;26.80;52.10
53978;DHT22;39886;47.984;-1.586;2023-06-04T13:36:05;26.80;52.10
53978;DHT22;39886;47.984;-1.586;2023-06-04T13:38:32;26.80;52.10
53978;DHT22;39886;47.984;-1.586;2023-06-04T13:40:58;26.80;52.10
53978;DHT22;39886;47.984;-1.586;2023-06-04T13:43:24;26.80;52.20
53978;DHT22;39886;47.984;-1.586;2023-06-04T13:45:50;26.80;52.10
53978;DHT22;39886;47.984;-1.586;2023-06-04T13:48:16;26.70;52.10
53978;DHT22;39886;47.984;-1.586;2023-06-04T13:50:42;26.80;52.10
53978;DHT22;39886;47.984;-1.586;2023-06-04T13:53:08;26.70;52.00
53978;DHT22;39886;47.984;-1.586;2023-06-04T13:55:34;26.80;52.10
53978;DHT22;39886;47.984;-1.586;2023-06-04T13:58:00;26.80;52.10
53978;DHT22;39886;47.984;-1.586;2023-06-04T14:00:25;26.80;52.00
53978;DHT22;39886;47.984;-1.586;2023-06-04T14:02:52;26.80;52.10
53978;DHT22;39886;47.984;-1.586;2023-06-04T14:05:20;26.80;52.00
53978;DHT22;39886;47.984;-1.586;2023-06-04T14:07:46;26.80;52.00
53978;DHT22;39886;47.984;-1.586;2023-06-04T14:10:12;26.80;52.00
53978;DHT22;39886;47.984;-1.586;2023-06-04T14:12:38;26.80;52.00
53978;DHT22;39886;47.984;-1.586;2023-06-04T14:15:10;26.80;52.00
53978;DHT22;39886;47.984;-1.586;2023-06-04T14:17:39;26.80;52.00
53978;DHT22;39886;47.984;-1.586;2023-06-04T14:20:05;26.80;51.90
53978;DHT22;39886;47.984;-1.586;2023-06-04T14:22:35;26.80;51.90
53978;DHT22;39886;47.984;-1.586;2023-06-04T14:25:02;26.80;51.90
53978;DHT22;39886;47.984;-1.586;2023-06-04T14:27:28;26.80;51.90
53978;DHT22;39886;47.984;-1.586;2023-06-04T14:29:55;26.80;51.90
53978;DHT22;39886;47.984;-1.586;2023-06-04T14:32:20;26.80;51.90
53978;DHT22;39886;47.984;-1.586;2023-06-04T14:34:46;26.80;51.80
53978;DHT22;39886;47.984;-1.586;2023-06-04T14:37:12;26.80;51.80
53978;DHT22;39886;47.984;-1.586;2023-06-04T14:39:37;26.80;51.80
53978;DHT22;39886;47.984;-1.586;2023-06-04T14:42:04;26.90;51.80
53978;DHT22;39886;47.984;-1.586;2023-06-04T14:44:30;26.90;51.90
53978;DHT22;39886;47.984;-1.586;2023-06-04T14:46:55;26.90;51.90
53978;DHT22;39886;47.984;-1.586;2023-06-04T14:49:21;26.80;51.70
53978;DHT22;39886;47.984;-1.586;2023-06-04T14:51:47;26.80;51.70
53978;DHT22;39886;47.984;-1.586;2023-06-04T14:54:13;26.80;51.70
53978;DHT22;39886;47.984;-1.586;2023-06-04T14:56:39;26.80;51.70
53978;DHT22;39886;47.984;-1.586;2023-06-04T14:59:04;26.80;51.70
53978;DHT22;39886;47.984;-1.586;2023-06-04T15:01:37;26.80;52.40
53978;DHT22;39886;47.984;-1.586;2023-06-04T15:04:04;26.80;51.70
53978;DHT22;39886;47.984;-1.586;2023-06-04T15:06:30;26.80;51.70
53978;DHT22;39886;47.984;-1.586;2023-06-04T15:08:56;26.80;51.80
53978;DHT22;39886;47.984;-1.586;2023-06-04T15:11:21;26.80;52.40
53978;DHT22;39886;47.984;-1.586;2023-06-04T15:13:47;26.90;51.80
53978;DHT22;39886;47.984;-1.586;2023-06-04T15:16:13;26.90;51.80
53978;DHT22;39886;47.984;-1.586;2023-06-04T15:18:38;26.90;51.70
53978;DHT22;39886;47.984;-1.586;2023-06-04T15:21:04;26.90;51.70
53978;DHT22;39886;47.984;-1.586;2023-06-04T15:23:30;26.90;51.70
53978;DHT22;39886;47.984;-1.586;2023-06-04T15:25:56;26.90;51.80
53978;DHT22;39886;47.984;-1.586;2023-06-04T15:28:21;26.90;51.70
53978;DHT22;39886;47.984;-1.586;2023-06-04T15:30:47;26.90;51.70
53978;DHT22;39886;47.984;-1.586;2023-06-04T15:33:13;26.90;51.70